createdAt,value
2017-09-23T00:00:39.421Z,16.33
2017-09-23T00:03:10.579Z,18.73
2017-09-23T00:05:40.971Z,19.90
2017-09-23T00:08:11.998Z,17.60
2017-09-23T00:10:42.426Z,16.30
2017-09-23T00:13:12.840Z,20.37
2017-09-23T00:15:43.186Z,17.50
2017-09-23T00:18:14.145Z,15.43
2017-09-23T00:20:45.255Z,16.10
2017-09-23T00:23:21.865Z,16.83
2017-09-23T00:25:52.475Z,15.70
2017-09-23T00:28:23.026Z,17.40
2017-09-23T00:30:53.483Z,17.60
2017-09-23T00:33:26.117Z,16.00
2017-09-23T00:35:56.722Z,16.30
2017-09-23T00:38:27.642Z,16.47
2017-09-23T00:40:58.084Z,15.60
2017-09-23T00:43:29.051Z,16.77
2017-09-23T00:45:59.468Z,17.30
2017-09-23T00:48:31.457Z,16.87
2017-09-23T00:51:02.444Z,17.70
2017-09-23T00:53:33.259Z,16.33
2017-09-23T00:56:04.746Z,15.27
2017-09-23T00:58:35.291Z,16.77
2017-09-23T01:01:06.557Z,19.27
2017-09-23T01:03:39.006Z,16.57
2017-09-23T01:06:09.513Z,17.67
2017-09-23T01:08:40.011Z,17.90
2017-09-23T01:11:11.894Z,18.10
2017-09-23T01:13:43.822Z,20.00
2017-09-23T01:16:14.388Z,18.10
2017-09-23T01:18:44.848Z,17.13
2017-09-23T01:21:16.185Z,17.50
2017-09-23T01:23:48.449Z,15.57
2017-09-23T01:26:20.199Z,20.33
2017-09-23T01:28:51.319Z,15.73
2017-09-23T01:31:22.588Z,14.73
2017-09-23T01:33:53.686Z,15.60
2017-09-23T01:36:24.775Z,18.03
2017-09-23T01:38:57.062Z,16.90
2017-09-23T01:41:30.128Z,17.53
2017-09-23T01:44:03.156Z,19.10
2017-09-23T01:46:36.046Z,16.43
2017-09-23T01:49:07.726Z,18.40
2017-09-23T01:51:38.667Z,19.13
2017-09-23T01:54:09.596Z,16.93
2017-09-23T01:56:41.260Z,18.73
2017-09-23T01:59:13.400Z,16.07
2017-09-23T02:01:45.363Z,18.43
2017-09-23T02:04:16.624Z,18.00
2017-09-23T02:06:47.510Z,16.93
2017-09-23T02:09:18.051Z,16.03
2017-09-23T02:11:49.054Z,15.60
2017-09-23T02:14:20.113Z,21.73
2017-09-23T02:16:50.284Z,17.80
2017-09-23T02:19:21.218Z,19.30
2017-09-23T02:21:53.169Z,15.40
2017-09-23T02:24:24.939Z,16.07
2017-09-23T02:26:55.227Z,15.80
2017-09-23T02:29:26.172Z,16.50
2017-09-23T02:31:56.774Z,18.13
2017-09-23T02:34:27.026Z,15.50
2017-09-23T02:36:57.280Z,16.20
2017-09-23T02:39:28.228Z,15.90
2017-09-23T02:41:58.726Z,16.73
2017-09-23T02:44:30.468Z,19.23
2017-09-23T02:47:01.835Z,17.30
2017-09-23T02:49:32.069Z,18.00
2017-09-23T02:52:02.669Z,17.10
2017-09-23T02:54:33.124Z,16.87
2017-09-23T02:57:04.172Z,17.87
2017-09-23T02:59:35.235Z,16.83
2017-09-23T03:02:06.459Z,16.43
2017-09-23T03:04:38.924Z,19.43
2017-09-23T03:07:09.167Z,17.00
2017-09-23T03:09:40.276Z,17.97
2017-09-23T03:12:11.574Z,14.90
2017-09-23T03:14:42.418Z,16.60
2017-09-23T03:17:14.271Z,17.90
2017-09-23T03:19:45.948Z,18.23
2017-09-23T03:22:18.972Z,18.53
2017-09-23T03:24:51.279Z,16.70
2017-09-23T03:27:22.990Z,16.30
2017-09-23T03:29:54.464Z,17.83
2017-09-23T03:32:25.360Z,16.77
2017-09-23T03:34:57.128Z,20.40
2017-09-23T03:37:28.486Z,16.50
2017-09-23T03:40:00.741Z,16.97
2017-09-23T03:42:32.163Z,20.70
2017-09-23T03:45:05.422Z,18.70
2017-09-23T03:47:35.995Z,19.20
2017-09-23T03:50:07.361Z,20.07
2017-09-23T03:52:39.057Z,21.20
2017-09-23T03:55:16.925Z,22.83
2017-09-23T03:57:48.653Z,20.30
2017-09-23T04:00:19.698Z,19.70
2017-09-23T04:02:50.682Z,20.77
2017-09-23T04:05:21.700Z,18.27
2017-09-23T04:07:54.373Z,20.03
2017-09-23T04:10:25.564Z,19.17
2017-09-23T04:12:57.145Z,20.50
2017-09-23T04:15:27.992Z,21.47
2017-09-23T04:17:59.335Z,19.70
2017-09-23T04:20:30.180Z,17.10
2017-09-23T04:23:05.539Z,20.40
2017-09-23T04:25:37.507Z,19.07
2017-09-23T04:28:08.687Z,21.00
2017-09-23T04:30:40.816Z,18.70
2017-09-23T04:33:12.840Z,23.30
2017-09-23T04:35:43.948Z,21.00
2017-09-23T04:38:14.165Z,21.20
2017-09-23T04:40:44.339Z,20.57
2017-09-23T04:43:15.164Z,23.17
2017-09-23T04:45:46.545Z,18.70
2017-09-23T04:48:18.456Z,18.37
2017-09-23T04:50:49.332Z,19.20
2017-09-23T04:53:25.416Z,24.13
2017-09-23T04:55:57.213Z,18.50
2017-09-23T04:58:28.586Z,19.30
2017-09-23T05:00:59.396Z,22.47
2017-09-23T05:03:30.693Z,22.10
2017-09-23T05:06:02.471Z,24.80
2017-09-23T05:08:34.012Z,33.13
2017-09-23T05:11:06.475Z,25.03
2017-09-23T05:13:46.573Z,24.43
2017-09-23T05:16:36.928Z,27.30
2017-09-23T05:19:08.881Z,24.70
2017-09-23T05:26:31.811Z,24.40
2017-09-23T05:29:37.650Z,25.83
2017-09-23T05:32:16.016Z,22.80
2017-09-23T05:34:46.343Z,20.17
2017-09-23T05:37:25.149Z,22.67
2017-09-23T05:40:41.560Z,18.80
2017-09-23T05:43:22.729Z,23.30
2017-09-23T05:46:45.814Z,23.00
2017-09-23T05:49:17.805Z,23.57
2017-09-23T05:52:08.035Z,26.53
2017-09-23T05:54:42.299Z,22.73
2017-09-23T05:57:21.275Z,21.20
2017-09-23T06:00:21.233Z,21.30
2017-09-23T06:03:08.733Z,19.17
2017-09-23T06:06:03.776Z,20.10
2017-09-23T06:08:56.060Z,20.47
2017-09-23T06:11:37.187Z,20.67
2017-09-23T06:14:40.198Z,20.03
2017-09-23T06:19:40.460Z,20.63
2017-09-23T06:22:12.781Z,22.97
2017-09-23T06:24:50.477Z,21.33
2017-09-23T06:27:43.568Z,21.90
2017-09-23T06:30:14.715Z,20.40
2017-09-23T06:32:51.005Z,20.33
2017-09-23T06:35:26.868Z,18.30
2017-09-23T06:38:02.118Z,19.70
2017-09-23T06:40:35.304Z,19.90
2017-09-23T06:43:16.036Z,19.80
2017-09-23T06:46:03.576Z,20.33
2017-09-23T06:55:56.026Z,20.97
2017-09-23T07:01:57.861Z,19.00
2017-09-23T07:04:31.357Z,21.00
2017-09-23T07:07:06.713Z,20.77
2017-09-23T07:09:46.593Z,21.10
2017-09-23T07:12:24.195Z,22.50
2017-09-23T07:15:04.176Z,22.47
2017-09-23T07:17:43.143Z,23.33
2017-09-23T07:20:16.757Z,22.00
2017-09-23T07:23:08.925Z,23.60
2017-09-23T07:26:00.296Z,25.27
2017-09-23T07:28:37.731Z,28.33
2017-09-23T07:31:25.494Z,29.00
2017-09-23T07:34:10.561Z,28.40
2017-09-23T07:36:48.017Z,31.77
2017-09-23T07:39:31.037Z,30.60
2017-09-23T07:42:14.520Z,28.50
2017-09-23T07:44:53.368Z,26.57
2017-09-23T07:47:32.561Z,30.37
2017-09-23T07:50:05.136Z,30.13
2017-09-23T07:52:40.707Z,29.93
2017-09-23T07:55:16.046Z,23.10
2017-09-23T07:57:50.605Z,25.20
2017-09-23T08:00:30.264Z,24.53
2017-09-23T08:03:04.633Z,27.33
2017-09-23T08:05:37.345Z,23.23
2017-09-23T08:08:07.884Z,25.53
2017-09-23T08:10:40.585Z,23.40
2017-09-23T08:13:11.136Z,24.47
2017-09-23T08:15:42.423Z,23.73
2017-09-23T08:18:15.410Z,24.70
2017-09-23T08:20:46.186Z,23.13
2017-09-23T08:23:17.326Z,25.33
2017-09-23T08:25:50.864Z,26.20
2017-09-23T08:28:21.678Z,26.83
2017-09-23T08:30:51.844Z,24.80
2017-09-23T08:33:35.976Z,24.53
2017-09-23T08:39:27.948Z,26.07
2017-09-23T08:42:05.850Z,24.97
2017-09-23T08:44:49.069Z,27.43
2017-09-23T08:47:24.432Z,24.37
2017-09-23T08:50:05.684Z,25.13
2017-09-23T08:52:37.393Z,27.60
2017-09-23T08:55:12.274Z,26.53
2017-09-23T08:57:49.377Z,27.13
2017-09-23T09:00:21.989Z,25.67
2017-09-23T09:03:07.972Z,25.77
2017-09-23T09:05:40.349Z,27.10
2017-09-23T09:08:17.785Z,24.87
2017-09-23T09:10:55.147Z,26.63
2017-09-23T09:14:09.539Z,26.33
2017-09-23T09:16:47.477Z,23.60
2017-09-23T09:19:23.171Z,26.57
2017-09-23T09:27:07.106Z,22.83
2017-09-23T09:29:46.946Z,23.63
2017-09-23T09:32:19.984Z,22.90
2017-09-23T09:34:54.130Z,20.43
2017-09-23T09:37:29.095Z,19.63
2017-09-23T09:40:48.387Z,20.57
2017-09-23T09:43:28.868Z,20.47
2017-09-23T09:46:09.219Z,21.00
2017-09-23T09:48:43.646Z,23.37
2017-09-23T09:51:17.284Z,22.30
2017-09-23T09:54:00.352Z,21.23
2017-09-23T09:56:45.416Z,21.03
2017-09-23T09:59:30.570Z,22.43
2017-09-23T10:02:12.024Z,21.40
2017-09-23T10:04:43.333Z,21.53
2017-09-23T10:07:18.542Z,23.50
2017-09-23T10:09:51.331Z,21.40
2017-09-23T10:12:32.776Z,22.60
2017-09-23T10:15:09.657Z,23.27
2017-09-23T10:17:46.937Z,28.70
2017-09-23T10:20:22.528Z,21.80
2017-09-23T10:23:01.055Z,21.73
2017-09-23T10:25:59.517Z,25.10
2017-09-23T10:28:33.790Z,23.50
2017-09-23T10:33:47.164Z,22.90
2017-09-23T10:36:21.375Z,24.67
2017-09-23T10:39:15.403Z,28.20
2017-09-23T10:41:47.286Z,23.60
2017-09-23T10:44:19.071Z,30.13
2017-09-23T10:47:13.971Z,23.00
2017-09-23T10:49:46.416Z,24.53
2017-09-23T10:52:21.648Z,23.97
2017-09-23T10:54:54.005Z,27.30
2017-09-23T10:57:23.971Z,25.60
2017-09-23T10:59:56.561Z,27.13
2017-09-23T11:02:27.849Z,26.77
2017-09-23T11:04:59.090Z,24.27
2017-09-23T11:07:51.810Z,26.73
2017-09-23T11:10:23.807Z,26.17
2017-09-23T11:12:57.021Z,27.03
2017-09-23T11:15:37.701Z,26.33
2017-09-23T11:18:10.220Z,25.30
2017-09-23T11:20:51.166Z,24.57
2017-09-23T11:23:32.892Z,25.13
2017-09-23T11:26:47.256Z,23.87
2017-09-23T11:29:20.616Z,21.73
2017-09-23T11:31:54.199Z,22.70
2017-09-23T11:34:33.281Z,22.00
2017-09-23T11:37:25.465Z,20.93
2017-09-23T11:40:14.429Z,22.47
2017-09-23T11:45:27.557Z,25.50
2017-09-23T11:48:01.185Z,23.50
2017-09-23T11:50:37.690Z,22.00
2017-09-23T11:53:12.063Z,22.70
2017-09-23T11:55:53.237Z,22.70
2017-09-23T11:58:31.944Z,23.23
2017-09-23T12:01:05.871Z,23.80
2017-09-23T12:03:39.921Z,21.00
2017-09-23T12:06:16.468Z,22.50
2017-09-23T12:08:48.936Z,22.00
2017-09-23T12:11:21.551Z,22.70
2017-09-23T12:13:51.583Z,21.53
2017-09-23T12:16:24.257Z,23.27
2017-09-23T12:21:40.963Z,21.27
2017-09-23T12:24:14.423Z,23.00
2017-09-23T12:26:53.205Z,24.90
2017-09-23T12:29:26.029Z,20.63
2017-09-23T12:31:57.049Z,24.43
2017-09-23T12:34:42.361Z,20.87
2017-09-23T12:42:34.062Z,21.20
2017-09-23T12:45:13.093Z,20.07
2017-09-23T12:47:43.848Z,19.50
2017-09-23T12:54:28.406Z,22.40
2017-09-23T13:12:42.998Z,20.40
2017-09-23T13:15:39.685Z,21.80
2017-09-23T13:18:11.117Z,20.17
2017-09-23T13:21:01.287Z,20.63
2017-09-23T13:23:50.231Z,22.43
2017-09-23T13:26:21.848Z,20.63
2017-09-23T13:29:37.124Z,21.60
2017-09-23T13:32:41.232Z,18.77
2017-09-23T13:35:26.124Z,18.87
2017-09-23T13:38:03.602Z,19.43
2017-09-23T13:40:46.459Z,22.20
2017-09-23T13:43:28.359Z,19.60
2017-09-23T13:45:59.381Z,18.27
2017-09-23T13:48:30.412Z,23.97
2017-09-23T13:51:02.309Z,19.87
2017-09-23T13:53:34.513Z,19.30
2017-09-23T13:56:10.172Z,22.23
2017-09-23T13:58:49.235Z,20.37
2017-09-23T14:01:23.952Z,18.50
2017-09-23T14:04:54.734Z,20.53
2017-09-23T14:07:43.616Z,21.03
2017-09-23T14:10:20.868Z,20.40
2017-09-23T14:12:53.125Z,17.80
2017-09-23T14:15:27.291Z,16.90
2017-09-23T14:18:12.786Z,17.80
2017-09-23T14:20:46.067Z,18.23
2017-09-23T14:26:08.884Z,17.50
2017-09-23T14:28:44.396Z,18.47
2017-09-23T14:31:19.861Z,19.67
2017-09-23T14:33:55.514Z,19.23
2017-09-23T14:36:32.433Z,20.93
2017-09-23T14:39:15.930Z,21.00
2017-09-23T14:41:58.381Z,21.87
2017-09-23T14:47:24.298Z,22.33
2017-09-23T14:50:09.017Z,20.00
2017-09-23T14:52:55.095Z,23.77
2017-09-23T14:55:29.750Z,23.50
2017-09-23T14:58:09.364Z,21.40
2017-09-23T15:00:42.398Z,21.80
2017-09-23T15:03:26.785Z,22.73
2017-09-23T15:06:05.634Z,20.90
2017-09-23T15:08:53.383Z,25.90
2017-09-23T15:11:26.905Z,23.97
2017-09-23T15:14:07.112Z,22.80
2017-09-23T15:16:47.350Z,24.07
2017-09-23T15:22:12.035Z,24.90
2017-09-23T15:24:51.835Z,27.10
2017-09-23T15:28:12.355Z,24.33
2017-09-23T15:31:17.393Z,24.10
2017-09-23T15:33:53.710Z,24.10
2017-09-23T15:36:34.649Z,23.70
2017-09-23T15:41:54.323Z,25.87
2017-09-23T15:49:57.678Z,24.80
2017-09-23T15:55:20.555Z,24.23
2017-09-23T15:57:56.303Z,29.40
2017-09-23T17:48:46.880Z,31.43
2017-09-23T17:51:18.397Z,31.53
2017-09-23T17:54:00.630Z,31.23
2017-09-23T17:56:41.047Z,28.93
2017-09-23T17:59:13.797Z,32.33
2017-09-23T18:01:44.841Z,34.20
2017-09-23T18:04:16.228Z,30.27
2017-09-23T18:06:47.461Z,29.47
2017-09-23T18:09:23.657Z,30.87
2017-09-23T18:11:54.574Z,31.77
2017-09-23T18:14:29.504Z,33.30
2017-09-23T18:17:03.740Z,30.33
2017-09-23T18:19:40.770Z,34.57
2017-09-23T18:22:23.815Z,33.93
2017-09-23T18:25:01.850Z,33.17
2017-09-23T18:27:33.298Z,31.97
2017-09-23T18:30:05.575Z,31.33
2017-09-23T18:32:37.276Z,35.00
2017-09-23T18:35:10.850Z,33.40
2017-09-23T18:37:41.851Z,32.97
2017-09-23T18:40:19.919Z,34.83
2017-09-23T18:42:57.005Z,33.10
2017-09-23T18:45:33.913Z,33.00
2017-09-23T18:48:05.190Z,32.50
2017-09-23T18:50:39.155Z,35.10
2017-09-23T18:53:14.124Z,36.30
2017-09-23T18:55:53.924Z,35.87
2017-09-23T18:58:48.110Z,38.00
2017-09-23T19:01:19.167Z,36.57
2017-09-23T19:04:17.726Z,36.50
2017-09-23T19:06:48.916Z,34.57
2017-09-23T19:09:19.269Z,35.57
2017-09-23T19:11:52.631Z,42.70
2017-09-23T19:14:45.390Z,40.67
2017-09-23T19:17:17.170Z,38.03
2017-09-23T19:19:47.823Z,41.20
2017-09-23T19:22:30.315Z,39.30
2017-09-23T19:25:04.382Z,40.77
2017-09-23T19:27:34.765Z,42.97
2017-09-23T19:30:16.119Z,43.40
2017-09-23T19:32:52.332Z,45.03
2017-09-23T19:35:28.611Z,42.47
2017-09-23T19:38:09.069Z,44.20
2017-09-23T19:40:47.826Z,44.30
2017-09-23T19:43:24.155Z,37.07
2017-09-23T19:45:56.639Z,37.03
2017-09-23T19:48:30.824Z,36.27
2017-09-23T19:51:25.739Z,37.07
2017-09-23T19:54:11.164Z,41.23
2017-09-23T19:56:42.893Z,35.90
2017-09-23T19:59:29.925Z,33.03
2017-09-23T20:02:01.232Z,34.93
2017-09-23T20:04:38.739Z,35.00
2017-09-23T20:07:12.092Z,32.20
2017-09-23T20:09:49.869Z,38.50
2017-09-23T20:12:55.073Z,39.93
2017-09-23T20:15:29.475Z,41.07
2017-09-23T20:18:09.349Z,39.07
2017-09-23T20:23:14.035Z,48.30
2017-09-23T20:25:51.603Z,43.53
2017-09-23T20:28:23.442Z,38.90
2017-09-23T20:30:56.630Z,38.47
2017-09-23T20:33:30.648Z,39.07
2017-09-23T20:38:50.106Z,43.57
2017-09-23T20:41:24.342Z,42.07
2017-09-23T20:43:58.636Z,42.20
2017-09-23T20:46:36.637Z,50.20
2017-09-23T20:49:10.906Z,39.17
2017-09-23T20:51:42.800Z,36.50
2017-09-23T20:54:16.278Z,38.20
2017-09-23T20:56:49.874Z,31.87
2017-09-23T20:59:23.059Z,28.20
2017-09-23T21:01:54.968Z,27.53
2017-09-23T21:04:30.773Z,26.20
2017-09-23T21:07:02.648Z,23.53
2017-09-23T21:09:34.327Z,24.07
2017-09-23T21:12:07.152Z,32.17
2017-09-23T21:14:39.643Z,32.00
2017-09-23T21:17:12.784Z,29.60
2017-09-23T21:19:44.060Z,32.93
2017-09-23T21:22:18.703Z,25.60
2017-09-23T21:24:52.228Z,27.47
2017-09-23T21:27:25.858Z,32.80
2017-09-23T21:30:03.962Z,29.87
2017-09-23T21:32:37.460Z,27.67
2017-09-23T21:35:09.591Z,28.57
2017-09-23T21:37:42.671Z,33.07
2017-09-23T21:40:14.780Z,33.80
2017-09-23T21:42:46.640Z,32.27
2017-09-23T21:45:18.403Z,29.67
2017-09-23T21:47:50.348Z,36.20
2017-09-23T21:50:28.969Z,31.73
2017-09-23T21:53:03.232Z,37.13
2017-09-23T21:55:47.197Z,31.20
2017-09-23T21:58:18.795Z,30.57
2017-09-23T22:00:51.046Z,33.30
2017-09-23T22:03:21.465Z,37.00
2017-09-23T22:05:52.825Z,32.77
2017-09-23T22:08:25.868Z,31.40
2017-09-23T22:10:59.409Z,33.40
2017-09-23T22:13:34.937Z,30.53
2017-09-23T22:16:07.391Z,29.27
2017-09-23T22:18:40.300Z,34.80
2017-09-23T22:21:13.817Z,31.77
2017-09-23T22:23:47.786Z,33.93
2017-09-23T22:26:20.071Z,31.10
2017-09-23T22:28:51.687Z,31.33
2017-09-23T22:31:23.463Z,29.93
2017-09-23T22:33:57.452Z,31.90
2017-09-23T22:36:29.090Z,28.53
2017-09-23T22:39:01.328Z,35.10
2017-09-23T22:41:33.481Z,31.03
2017-09-23T22:44:08.976Z,31.10
2017-09-23T22:46:40.872Z,30.33
2017-09-23T22:49:14.000Z,30.33
2017-09-23T22:51:48.235Z,31.10
2017-09-23T22:54:22.637Z,32.73
2017-09-23T22:56:55.862Z,32.30
2017-09-23T22:59:29.472Z,34.90
2017-09-23T23:02:01.544Z,36.17
2017-09-23T23:04:34.756Z,32.80
2017-09-23T23:07:08.448Z,30.90
2017-09-23T23:09:41.632Z,32.43
2017-09-23T23:12:13.625Z,28.63
2017-09-23T23:14:44.886Z,28.00
2017-09-23T23:17:15.861Z,28.67
2017-09-23T23:19:47.015Z,30.17
2017-09-23T23:22:17.994Z,33.30
2017-09-23T23:24:58.049Z,37.00
2017-09-23T23:27:29.027Z,37.17
2017-09-23T23:30:01.194Z,34.13
2017-09-23T23:32:33.911Z,33.60
2017-09-23T23:35:05.626Z,40.90
2017-09-23T23:37:36.759Z,41.23
2017-09-23T23:40:09.522Z,50.10
2017-09-23T23:42:40.424Z,38.80
2017-09-23T23:45:14.238Z,41.23
2017-09-23T23:47:44.716Z,45.40
2017-09-23T23:50:16.262Z,46.53
2017-09-23T23:53:13.111Z,43.87
2017-09-23T23:55:48.990Z,45.83
2017-09-23T23:58:51.931Z,35.00
